Time;durP1;ratioP1;P1;durP2;ratioP2;P2;SDS_P1;SDS_P2;PMS_P1;PMS_P2;Temp;Humidity;BMP_temperature;BMP_pressure;BME280_temperature;BME280_humidity;BME280_pressure;Samples;Min_cycle;Max_cycle;Signal;HPM_P1;HPM_P2
2021/07/19 00:02:08;;;;;;;4.80;3.83;;;;;;;19.71;nan;100836.94;4974135;28;20030;-87
2021/07/19 00:04:38;;;;;;;3.95;3.55;;;;;;;19.68;nan;100838.16;4991779;28;20034;-86
2021/07/19 00:07:04;;;;;;;4.00;3.60;;;;;;;19.60;nan;100832.97;4998732;28;20377;-86
2021/07/19 00:09:29;;;;;;;4.53;3.60;;;;;;;19.64;nan;100841.44;4983289;28;20041;-86
2021/07/19 00:11:54;;;;;;;5.72;4.00;;;;;;;19.63;nan;100829.88;5001897;28;20058;-86
2021/07/19 00:14:19;;;;;;;5.15;4.03;;;;;;;19.60;nan;100838.34;4978062;28;20044;-86
2021/07/19 00:16:45;;;;;;;5.10;3.92;;;;;;;19.60;nan;100842.88;4999908;28;20041;-86
2021/07/19 00:19:10;;;;;;;4.28;3.80;;;;;;;19.55;nan;100832.78;4983617;28;20038;-86
2021/07/19 00:21:36;;;;;;;4.70;4.30;;;;;;;19.56;nan;100838.94;5004656;28;20062;-86
2021/07/19 00:24:01;;;;;;;5.97;5.30;;;;;;;19.52;nan;100828.63;5005505;28;20034;-87
2021/07/19 00:26:26;;;;;;;5.68;5.18;;;;;;;19.54;nan;100831.09;5005219;28;20038;-85
2021/07/19 00:28:52;;;;;;;5.50;5.00;;;;;;;19.49;nan;100833.56;4994410;28;20492;-85
2021/07/19 00:31:20;;;;;;;6.85;6.15;;;;;;;19.49;nan;100838.94;5002975;28;20436;-87
2021/07/19 00:33:45;;;;;;;7.28;6.68;;;;;;;19.48;nan;100835.44;4979353;28;20050;-86
2021/07/19 00:36:10;;;;;;;8.38;7.60;;;;;;;19.49;nan;100833.56;4974959;28;20253;-86
2021/07/19 00:38:36;;;;;;;11.20;10.38;;;;;;;19.48;nan;100831.94;4992410;28;20504;-86
2021/07/19 00:41:02;;;;;;;11.68;10.80;;;;;;;19.47;nan;100836.47;4970853;28;20026;-86
2021/07/19 00:43:28;;;;;;;13.05;12.10;;;;;;;19.41;nan;100837.28;4999789;28;20054;-86
2021/07/19 00:45:53;;;;;;;13.25;12.45;;;;;;;19.39;nan;100833.97;4998085;28;20061;-86
2021/07/19 00:48:19;;;;;;;36.70;34.67;;;;;;;19.42;nan;100835.41;4976878;28;20037;-86
2021/07/19 00:50:44;;;;;;;26.25;23.80;;;;;;;19.42;nan;100835.41;4983049;28;20085;-86
2021/07/19 00:53:10;;;;;;;20.83;19.63;;;;;;;19.33;nan;100829.41;5002083;28;20475;-86
2021/07/19 00:55:38;;;;;;;23.15;21.85;;;;;;;19.29;nan;100828.97;4979334;28;20094;-85
2021/07/19 00:58:06;;;;;;;23.17;21.77;;;;;;;19.26;nan;100829.41;4994181;28;20043;-84
2021/07/19 01:00:35;;;;;;;22.85;21.55;;;;;;;19.23;nan;100828.97;4984563;28;20035;-86
2021/07/19 01:03:04;;;;;;;20.98;19.67;;;;;;;19.24;nan;100831.44;4997402;28;20058;-85
2021/07/19 01:05:30;;;;;;;21.58;20.27;;;;;;;19.18;nan;100834.09;4989401;28;20039;-85
2021/07/19 01:07:57;;;;;;;20.55;19.35;;;;;;;19.14;nan;100838.19;4996976;28;20051;-85
2021/07/19 01:10:24;;;;;;;23.30;22.00;;;;;;;19.09;nan;100838.78;4978658;28;20027;-85
2021/07/19 01:12:52;;;;;;;24.10;22.70;;;;;;;19.07;nan;100838.19;4981396;28;20386;-85
2021/07/19 01:15:22;;;;;;;25.65;24.27;;;;;;;19.05;nan;100832.22;4985996;28;20038;-85
2021/07/19 01:17:48;;;;;;;26.05;24.45;;;;;;;19.08;nan;100831.81;4995521;28;20042;-87
2021/07/19 01:20:16;;;;;;;27.05;25.55;;;;;;;19.06;nan;100828.47;5003822;28;20039;-87
2021/07/19 01:23:15;;;;;;;26.52;25.13;;;;;;;19.06;nan;100836.53;4985655;28;20047;-85
2021/07/19 01:25:59;;;;;;;24.60;23.23;;;;;;;19.00;nan;100832.81;5004661;28;20244;-85
2021/07/19 01:28:54;;;;;;;26.17;24.67;;;;;;;18.85;nan;100827.59;4969388;28;20097;-85
2021/07/19 01:31:25;;;;;;;27.42;25.92;;;;;;;18.82;nan;100819.94;4968930;28;20053;-87
2021/07/19 01:33:56;;;;;;;28.25;26.75;;;;;;;18.74;nan;100825.44;4998251;28;20042;-85
2021/07/19 01:36:26;;;;;;;27.17;25.63;;;;;;;18.65;nan;100821.25;4986126;28;20042;-86
2021/07/19 01:38:53;;;;;;;29.70;27.90;;;;;;;18.59;nan;100825.56;4985950;28;20187;-85
2021/07/19 01:41:20;;;;;;;33.40;31.67;;;;;;;18.54;nan;100825.31;4979577;28;20069;-84
2021/07/19 01:43:46;;;;;;;35.83;33.83;;;;;;;18.55;nan;100828.84;4988453;28;20036;-85
2021/07/19 01:46:14;;;;;;;37.65;35.65;;;;;;;18.49;nan;100824.25;4984026;28;20026;-85
2021/07/19 01:48:40;;;;;;;33.92;32.03;;;;;;;18.46;nan;100820.13;4985375;28;20038;-85
2021/07/19 01:51:06;;;;;;;34.92;32.95;;;;;;;18.44;nan;100824.84;4996176;28;20034;-85
2021/07/19 01:53:32;;;;;;;37.25;35.25;;;;;;;18.44;nan;100814.94;4987024;28;20103;-84
2021/07/19 01:55:59;;;;;;;41.17;39.00;;;;;;;18.47;nan;100821.75;4984947;28;20027;-86
2021/07/19 01:58:26;;;;;;;36.72;34.80;;;;;;;18.39;nan;100817.38;5001182;28;22052;-85
2021/07/19 02:00:52;;;;;;;39.30;37.20;;;;;;;18.38;nan;100823.78;4983243;28;20046;-85
2021/07/19 02:03:18;;;;;;;44.72;42.30;;;;;;;18.37;nan;100824.78;4998340;28;20065;-85
2021/07/19 02:05:45;;;;;;;41.10;38.97;;;;;;;18.40;nan;100823.56;4977515;28;20097;-85
2021/07/19 02:08:15;;;;;;;40.20;38.10;;;;;;;18.38;nan;100821.09;4986463;28;20026;-85
2021/07/19 02:10:41;;;;;;;38.47;36.47;;;;;;;18.41;nan;100825.22;4978304;28;20106;-85
2021/07/19 02:13:10;;;;;;;42.28;40.05;;;;;;;18.37;nan;100816.75;4986568;28;20076;-85
2021/07/19 02:15:37;;;;;;;46.15;43.75;;;;;;;18.42;nan;100821.53;5004351;28;20041;-85
2021/07/19 02:18:03;;;;;;;51.92;49.17;;;;;;;18.48;nan;100827.97;4995021;28;20061;-85
2021/07/19 02:20:31;;;;;;;46.70;44.30;;;;;;;18.38;nan;100823.78;4980885;28;20144;-85
2021/07/19 02:22:58;;;;;;;50.03;47.42;;;;;;;18.37;nan;100830.13;4997834;28;20035;-85
2021/07/19 02:25:24;;;;;;;44.33;41.88;;;;;;;18.33;nan;100828.03;4983936;28;20041;-85
2021/07/19 02:27:52;;;;;;;46.85;44.35;;;;;;;18.27;nan;100831.53;4995866;28;20086;-84
2021/07/19 02:30:20;;;;;;;46.63;44.03;;;;;;;18.19;nan;100827.16;5014371;28;20030;-86
2021/07/19 02:32:55;;;;;;;1999.90;999.90;;;;;;;18.15;nan;100820.53;4993350;28;20038;-84
2021/07/19 02:35:24;;;;;;;1999.90;999.90;;;;;;;18.09;nan;100818.59;5006371;28;20041;-85
2021/07/19 02:37:52;;;;;;;1999.90;999.90;;;;;;;17.98;nan;100812.78;5005625;28;20050;-85
2021/07/19 02:40:21;;;;;;;41.10;6.72;;;;;;;17.96;nan;100809.47;4974587;28;20058;-85
2021/07/19 02:42:50;;;;;;;1999.90;999.90;;;;;;;17.93;nan;100815.19;4980347;28;20035;-86
2021/07/19 02:45:17;;;;;;;1999.90;999.90;;;;;;;17.90;nan;100814.75;4981453;28;20057;-85
2021/07/19 02:47:44;;;;;;;50.03;22.48;;;;;;;17.87;nan;100812.47;4994149;28;20038;-86
2021/07/19 02:50:10;;;;;;;10.57;9.85;;;;;;;17.78;nan;100820.59;4976567;28;20489;-85
2021/07/19 02:52:38;;;;;;;15.32;14.00;;;;;;;17.74;nan;100819.31;4980737;28;20129;-84
2021/07/19 02:55:05;;;;;;;23.25;21.95;;;;;;;17.72;nan;100820.53;4977713;28;20457;-85
2021/07/19 02:57:30;;;;;;;29.77;28.10;;;;;;;17.66;nan;100826.63;5001780;28;20070;-87
2021/07/19 02:59:57;;;;;;;47.33;44.78;;;;;;;17.57;nan;100821.44;4986021;28;20035;-85
2021/07/19 03:02:25;;;;;;;66.45;63.08;;;;;;;17.51;nan;100829.38;5002227;28;20034;-85
2021/07/19 03:04:55;;;;;;;1999.90;999.90;;;;;;;17.51;nan;100830.19;4978303;28;20031;-84
2021/07/19 03:07:22;;;;;;;66.35;36.70;;;;;;;17.47;nan;100833.44;4985320;28;20041;-85
2021/07/19 03:09:51;;;;;;;7.50;6.90;;;;;;;17.47;nan;100833.44;4978678;28;20054;-85
2021/07/19 03:12:20;;;;;;;9.98;9.27;;;;;;;17.43;nan;100832.19;5005411;28;20034;-84
2021/07/19 03:14:48;;;;;;;10.80;10.10;;;;;;;17.41;nan;100827.84;5002251;28;20030;-85
2021/07/19 03:17:17;;;;;;;12.25;11.45;;;;;;;17.45;nan;100830.97;4982024;28;20027;-85
2021/07/19 03:19:43;;;;;;;11.38;10.57;;;;;;;17.47;nan;100831.63;4987151;28;20038;-85
2021/07/19 03:22:11;;;;;;;13.10;12.05;;;;;;;17.49;nan;100823.38;4980794;28;20051;-85
2021/07/19 03:24:37;;;;;;;15.20;14.30;;;;;;;17.51;nan;100821.34;5003141;28;20031;-84
2021/07/19 03:27:03;;;;;;;19.77;18.67;;;;;;;17.46;nan;100815.75;4986711;28;20030;-86
2021/07/19 03:29:30;;;;;;;24.75;23.40;;;;;;;17.47;nan;100815.56;4982681;28;20054;-85
2021/07/19 03:31:57;;;;;;;25.50;24.05;;;;;;;17.49;nan;100821.53;5001958;28;20035;-86
2021/07/19 03:34:23;;;;;;;28.80;27.17;;;;;;;17.49;nan;100821.53;4979089;28;20038;-85
2021/07/19 03:36:53;;;;;;;24.27;22.85;;;;;;;17.50;nan;100812.50;4989780;28;20059;-85
2021/07/19 03:39:19;;;;;;;30.92;29.23;;;;;;;17.50;nan;100819.72;4970179;28;20093;-85
2021/07/19 03:41:44;;;;;;;27.90;26.33;;;;;;;17.49;nan;100824.22;5003173;28;20042;-85
2021/07/19 03:44:11;;;;;;;28.33;26.63;;;;;;;17.42;nan;100831.34;4979923;28;20057;-86
2021/07/19 03:46:39;;;;;;;1999.90;999.90;;;;;;;17.43;nan;100827.66;5000911;28;20046;-86
2021/07/19 03:49:06;;;;;;;1999.90;999.90;;;;;;;17.39;nan;100831.72;5004916;28;20050;-85
2021/07/19 03:51:32;;;;;;;1999.90;999.90;;;;;;;17.37;nan;100823.88;5006077;28;20038;-85
2021/07/19 03:53:58;;;;;;;1999.90;999.90;;;;;;;17.34;nan;100834.13;5001433;28;20062;-85
2021/07/19 03:56:30;;;;;;;1999.90;999.90;;;;;;;17.37;nan;100828.41;4978782;28;20042;-85
2021/07/19 03:59:00;;;;;;;1999.90;999.90;;;;;;;17.35;nan;100827.75;4981181;28;20038;-85
2021/07/19 04:01:25;;;;;;;1999.90;999.90;;;;;;;17.29;nan;100832.03;4985482;28;20034;-85
2021/07/19 04:03:54;;;;;;;1999.90;999.90;;;;;;;17.30;nan;100830.16;4987707;28;20034;-85
2021/07/19 04:06:22;;;;;;;1999.90;999.90;;;;;;;17.27;nan;100836.72;4984356;28;20030;-84
2021/07/19 04:08:49;;;;;;;1999.90;999.90;;;;;;;17.29;nan;100834.69;4996415;28;20082;-85
2021/07/19 04:11:16;;;;;;;1999.90;999.90;;;;;;;17.31;nan;100832.66;4985187;28;20089;-85
2021/07/19 04:13:43;;;;;;;1999.90;999.90;;;;;;;17.27;nan;100823.34;4995002;28;20035;-85
2021/07/19 04:16:13;;;;;;;1999.90;999.90;;;;;;;17.28;nan;100834.88;4975952;28;20038;-85
2021/07/19 04:18:39;;;;;;;1999.90;999.90;;;;;;;17.27;nan;100834.06;5002041;28;20038;-85
2021/07/19 04:21:05;;;;;;;1999.90;999.90;;;;;;;17.31;nan;100842.53;4971427;28;20050;-85
2021/07/19 04:23:31;;;;;;;1999.90;999.90;;;;;;;17.35;nan;100841.13;4977319;28;20120;-85
2021/07/19 04:25:57;;;;;;;1999.90;999.90;;;;;;;17.38;nan;100838.91;4981562;28;20030;-85
2021/07/19 04:28:24;;;;;;;1999.90;999.90;;;;;;;17.41;nan;100840.38;4979234;28;20056;-85
2021/07/19 04:30:51;;;;;;;1999.90;999.90;;;;;;;17.42;nan;100852.72;4986211;28;20035;-85
2021/07/19 04:33:18;;;;;;;1999.90;999.90;;;;;;;17.46;nan;100843.31;5004404;28;20041;-85
2021/07/19 04:35:47;;;;;;;1999.90;999.90;;;;;;;17.46;nan;100840.63;4978443;28;20575;-84
2021/07/19 04:38:18;;;;;;;1999.90;999.90;;;;;;;17.54;nan;100845.03;4982453;28;20030;-86
2021/07/19 04:40:49;;;;;;;1999.90;999.90;;;;;;;17.53;nan;100833.50;4968335;28;20035;-85
2021/07/19 04:43:16;;;;;;;1999.90;999.90;;;;;;;17.50;nan;100825.88;4994234;28;20066;-85
2021/07/19 04:45:43;;;;;;;1999.90;999.90;;;;;;;17.57;nan;100837.47;4982967;28;20408;-85
2021/07/19 04:48:08;;;;;;;1999.90;999.90;;;;;;;17.63;nan;100835.88;4978827;28;20054;-85
2021/07/19 04:50:34;;;;;;;1999.90;999.90;;;;;;;17.62;nan;100832.38;4983924;28;20035;-84
2021/07/19 04:52:59;;;;;;;1999.90;999.90;;;;;;;17.71;nan;100834.91;4972422;28;20045;-84
2021/07/19 04:55:27;;;;;;;1999.90;999.90;;;;;;;17.75;nan;100844.22;4995336;28;20049;-85
2021/07/19 04:57:55;;;;;;;1999.90;999.90;;;;;;;17.77;nan;100844.84;5000747;28;20097;-85
2021/07/19 05:00:20;;;;;;;807.45;308.90;;;;;;;17.81;nan;100847.00;4993681;28;20171;-85
2021/07/19 05:02:49;;;;;;;701.75;218.88;;;;;;;17.81;nan;100841.66;4992767;28;20033;-84
2021/07/19 05:05:17;;;;;;;1999.90;999.90;;;;;;;17.85;nan;100844.75;4983933;28;20030;-85
2021/07/19 05:07:44;;;;;;;1999.90;999.90;;;;;;;17.92;nan;100848.31;4998418;28;20026;-85
2021/07/19 05:10:13;;;;;;;1999.90;999.90;;;;;;;17.94;nan;100846.28;4970969;28;20042;-85
2021/07/19 05:12:43;;;;;;;583.22;534.85;;;;;;;18.00;nan;100844.69;4978138;28;20047;-85
2021/07/19 05:15:13;;;;;;;220.02;201.27;;;;;;;18.08;nan;100855.25;4967269;28;20031;-84
2021/07/19 05:17:40;;;;;;;1999.90;999.90;;;;;;;18.10;nan;100857.75;4972130;28;20512;-85
2021/07/19 05:20:12;;;;;;;1999.90;999.90;;;;;;;18.18;nan;100857.59;4982216;28;20608;-85
2021/07/19 05:22:39;;;;;;;1999.90;999.90;;;;;;;18.23;nan;100850.66;4980625;28;20069;-85
2021/07/19 05:25:05;;;;;;;1999.90;999.90;;;;;;;18.35;nan;100848.28;5004798;28;20054;-85
2021/07/19 05:27:32;;;;;;;1999.90;999.90;;;;;;;18.42;nan;100851.81;4977401;28;20539;-85
2021/07/19 05:29:57;;;;;;;1999.90;999.90;;;;;;;18.49;nan;100851.84;4987296;28;20030;-85
2021/07/19 05:32:23;;;;;;;1999.90;999.90;;;;;;;18.58;nan;100855.22;4985427;28;20062;-85
2021/07/19 05:34:48;;;;;;;318.58;299.63;;;;;;;18.68;nan;100858.34;4987869;28;20031;-84
2021/07/19 05:37:14;;;;;;;1999.90;999.90;;;;;;;18.73;nan;100860.44;4988222;28;20046;-85
2021/07/19 05:39:39;;;;;;;1999.90;999.90;;;;;;;18.79;nan;100860.53;4973693;28;20094;-85
2021/07/19 05:42:04;;;;;;;1999.90;999.90;;;;;;;18.81;nan;100849.63;4995626;28;20026;-85
2021/07/19 05:44:29;;;;;;;1999.90;999.90;;;;;;;18.95;nan;100850.50;4987547;28;20049;-85
2021/07/19 05:46:55;;;;;;;1999.90;999.90;;;;;;;19.05;nan;100842.94;4981605;28;20061;-84
2021/07/19 05:49:20;;;;;;;127.70;17.60;;;;;;;19.20;nan;100848.94;5003663;28;20090;-85
2021/07/19 05:51:46;;;;;;;6.65;4.20;;;;;;;19.41;nan;100847.19;4986828;28;20050;-85
2021/07/19 05:54:11;;;;;;;5.90;5.07;;;;;;;19.68;nan;100848.09;5005072;28;20456;-85
2021/07/19 05:56:37;;;;;;;4.93;3.70;;;;;;;20.13;nan;100841.09;4978378;28;20215;-85
2021/07/19 05:59:03;;;;;;;9.88;8.98;;;;;;;20.52;nan;100834.03;4968150;28;20117;-85
2021/07/19 06:01:28;;;;;;;12.98;11.88;;;;;;;20.92;nan;100850.06;4993091;28;20039;-85
2021/07/19 06:03:54;;;;;;;32.42;30.42;;;;;;;21.10;nan;100838.63;4969245;28;20026;-84
2021/07/19 06:06:20;;;;;;;200.02;190.20;;;;;;;21.29;nan;100844.16;4980843;28;20026;-85
2021/07/19 06:08:45;;;;;;;41.95;39.55;;;;;;;21.79;nan;100845.09;5004160;28;20192;-85
2021/07/19 06:11:11;;;;;;;589.65;549.67;;;;;;;22.19;nan;100844.78;4998450;28;20062;-85
2021/07/19 06:13:36;;;;;;;1999.90;999.90;;;;;;;22.23;nan;100843.31;4982241;28;20043;-85
2021/07/19 06:16:02;;;;;;;1999.90;999.90;;;;;;;22.48;nan;100842.47;5003746;28;20031;-86
2021/07/19 06:18:27;;;;;;;1999.90;999.90;;;;;;;22.85;nan;100837.91;4976980;28;20046;-86
2021/07/19 06:20:53;;;;;;;1999.90;999.90;;;;;;;23.02;nan;100845.41;4988437;28;20035;-85
2021/07/19 06:23:19;;;;;;;1999.90;999.90;;;;;;;23.30;nan;100855.66;4988823;28;20034;-85
2021/07/19 06:25:45;;;;;;;1999.90;999.90;;;;;;;23.60;nan;100852.94;4982217;28;20069;-85
2021/07/19 06:28:10;;;;;;;711.85;663.92;;;;;;;23.65;nan;100854.97;5002538;28;20037;-85
2021/07/19 06:30:36;;;;;;;610.22;566.72;;;;;;;23.88;nan;100846.94;4991369;28;20057;-85
2021/07/19 06:33:02;;;;;;;1999.90;999.90;;;;;;;24.22;nan;100852.63;4977898;28;20228;-85
2021/07/19 06:35:28;;;;;;;1014.03;510.30;;;;;;;24.50;nan;100845.69;4979262;28;20039;-85
2021/07/19 06:37:53;;;;;;;116.60;106.10;;;;;;;24.71;nan;100847.78;4972993;28;20046;-85
2021/07/19 06:40:19;;;;;;;236.48;80.28;;;;;;;24.78;nan;100843.06;5005618;28;20054;-85
2021/07/19 06:42:45;;;;;;;108.95;77.93;;;;;;;25.37;nan;100844.81;4990849;28;20674;-86
2021/07/19 06:45:13;;;;;;;1999.90;999.90;;;;;;;25.70;nan;100845.94;4981886;28;20089;-85
2021/07/19 06:47:39;;;;;;;1529.78;757.10;;;;;;;25.85;nan;100838.06;4982973;28;20042;-86
2021/07/19 06:50:07;;;;;;;71.25;8.18;;;;;;;26.09;nan;100844.16;5002116;28;20039;-89
2021/07/19 06:52:33;;;;;;;4.50;2.50;;;;;;;25.95;nan;100842.84;4980472;28;20039;-86
2021/07/19 06:54:58;;;;;;;3.70;2.10;;;;;;;25.98;nan;100847.78;4970915;28;20042;-86
2021/07/19 06:57:24;;;;;;;4.43;2.63;;;;;;;26.09;nan;100849.59;4973009;28;20037;-86
2021/07/19 06:59:49;;;;;;;4.85;2.38;;;;;;;26.22;nan;100838.41;4987505;28;20034;-87
2021/07/19 07:02:15;;;;;;;4.57;2.55;;;;;;;26.26;nan;100849.56;4999109;28;20491;-85
2021/07/19 07:04:43;;;;;;;3.53;2.50;;;;;;;26.27;nan;100838.50;4979260;28;20034;-86
2021/07/19 07:07:09;;;;;;;4.13;2.50;;;;;;;26.03;nan;100842.47;4998571;28;20058;-86
2021/07/19 07:09:35;;;;;;;4.28;2.65;;;;;;;26.02;nan;100843.50;4994386;28;20043;-86
2021/07/19 07:12:00;;;;;;;5.22;2.78;;;;;;;26.15;nan;100832.34;4993230;28;20030;-85
2021/07/19 07:14:25;;;;;;;4.68;2.58;;;;;;;26.05;nan;100838.44;4988995;28;20065;-86
2021/07/19 07:16:51;;;;;;;3.40;2.30;;;;;;;26.41;nan;100841.69;4998439;28;20121;-84
2021/07/19 07:19:17;;;;;;;3.42;2.47;;;;;;;26.53;nan;100848.84;4999002;28;20034;-85
2021/07/19 07:21:42;;;;;;;6.00;2.50;;;;;;;26.68;nan;100840.97;4989231;28;20061;-85
2021/07/19 07:24:08;;;;;;;5.78;2.70;;;;;;;26.66;nan;100833.09;4996810;28;20034;-85
2021/07/19 07:26:34;;;;;;;4.40;2.33;;;;;;;26.74;nan;100839.13;4999211;28;20173;-86
2021/07/19 07:28:59;;;;;;;4.35;2.40;;;;;;;27.25;nan;100839.78;4992491;28;20033;-85
2021/07/19 07:31:27;;;;;;;5.70;2.15;;;;;;;27.55;nan;100836.53;4973549;28;20038;-85
2021/07/19 07:33:58;;;;;;;4.18;1.95;;;;;;;27.59;nan;100850.44;5005363;28;20034;-85
2021/07/19 07:36:29;;;;;;;4.80;2.22;;;;;;;28.05;nan;100843.50;4999931;28;20480;-85
2021/07/19 07:38:56;;;;;;;4.00;1.70;;;;;;;28.22;nan;100847.97;4987439;28;20042;-85
2021/07/19 07:41:31;;;;;;;3.17;1.80;;;;;;;28.47;nan;100842.72;4996698;28;20141;-87
2021/07/19 07:43:57;;;;;;;3.58;2.05;;;;;;;28.58;nan;100836.28;4983289;28;20057;-86
2021/07/19 07:46:23;;;;;;;5.18;1.98;;;;;;;28.76;nan;100836.88;4990944;28;20061;-87
2021/07/19 07:48:53;;;;;;;4.82;1.98;;;;;;;28.79;nan;100831.75;4993628;28;20031;-87
2021/07/19 07:51:19;;;;;;;5.25;2.00;;;;;;;29.05;nan;100834.53;4979932;28;20026;-87
2021/07/19 07:53:45;;;;;;;3.70;2.00;;;;;;;29.35;nan;100833.84;4974546;28;20559;-87
2021/07/19 07:56:10;;;;;;;3.78;1.73;;;;;;;29.26;nan;100827.28;4980835;28;20034;-87
2021/07/19 07:58:36;;;;;;;5.30;2.00;;;;;;;29.59;nan;100834.13;4998255;28;20034;-87
2021/07/19 08:01:02;;;;;;;3.17;1.77;;;;;;;29.75;nan;100829.53;4998353;28;20527;-86
2021/07/19 08:03:27;;;;;;;4.85;3.08;;;;;;;29.65;nan;100824.03;4988912;28;20043;-87
2021/07/19 08:05:53;;;;;;;2.00;1.58;;;;;;;29.85;nan;100828.72;4971312;28;20081;-87
2021/07/19 08:08:18;;;;;;;3.45;2.05;;;;;;;30.08;nan;100832.78;4995897;28;20030;-87
2021/07/19 08:10:44;;;;;;;3.25;1.98;;;;;;;30.20;nan;100833.31;4997162;28;20091;-87
2021/07/19 08:13:09;;;;;;;2.80;1.52;;;;;;;30.60;nan;100830.78;4988012;28;20068;-87
2021/07/19 08:15:35;;;;;;;3.17;1.70;;;;;;;30.76;nan;100824.16;4981444;28;20161;-87
2021/07/19 08:18:02;;;;;;;3.40;1.90;;;;;;;30.58;nan;100822.88;4997596;28;20038;-87
2021/07/19 08:20:27;;;;;;;4.00;2.20;;;;;;;30.81;nan;100831.50;4998202;28;20399;-87
2021/07/19 08:22:53;;;;;;;4.55;1.95;;;;;;;31.16;nan;100824.28;4994088;28;20054;-87
2021/07/19 08:25:19;;;;;;;41.20;5.10;;;;;;;31.74;nan;100829.88;4995543;28;20723;-87
2021/07/19 08:27:45;;;;;;;2.70;1.65;;;;;;;32.16;nan;100821.03;4973341;28;20515;-86
2021/07/19 08:30:11;;;;;;;171.20;28.00;;;;;;;32.65;nan;100815.59;4996510;28;20041;-87
2021/07/19 08:32:37;;;;;;;3.10;2.00;;;;;;;32.49;nan;100814.91;4989900;28;20130;-85
2021/07/19 08:35:09;;;;;;;6.88;2.20;;;;;;;32.42;nan;100815.28;4974890;28;20505;-86
2021/07/19 08:37:35;;;;;;;2.75;1.67;;;;;;;31.98;nan;100816.28;4993259;28;20045;-86
2021/07/19 08:40:00;;;;;;;4.20;1.80;;;;;;;32.42;nan;100818.03;4978001;28;20034;-87
2021/07/19 08:42:25;;;;;;;3.42;1.90;;;;;;;32.04;nan;100809.69;4982352;28;20042;-86
2021/07/19 08:44:51;;;;;;;3.47;1.80;;;;;;;32.93;nan;100808.38;4979557;28;20041;-86
2021/07/19 08:47:18;;;;;;;3.10;1.97;;;;;;;32.90;nan;100803.50;4994303;28;20049;-87
2021/07/19 08:49:43;;;;;;;2.33;1.70;;;;;;;32.77;nan;100794.91;4997942;28;20293;-86
2021/07/19 08:52:16;;;;;;;2.88;1.85;;;;;;;33.12;nan;100798.25;4997359;28;20565;-86
2021/07/19 08:54:47;;;;;;;4.07;1.70;;;;;;;32.83;nan;100803.06;4996530;28;20054;-87
2021/07/19 08:57:14;;;;;;;3.67;1.95;;;;;;;32.31;nan;100806.38;4984921;28;20031;-87
2021/07/19 08:59:40;;;;;;;3.53;1.95;;;;;;;31.40;nan;100808.03;4975337;28;20035;-86
2021/07/19 09:02:07;;;;;;;2.55;1.83;;;;;;;31.32;nan;100804.75;4987507;28;20027;-87
2021/07/19 09:04:35;;;;;;;3.35;1.95;;;;;;;30.50;nan;100807.06;4978612;28;20042;-86
2021/07/19 09:07:02;;;;;;;3.70;2.20;;;;;;;29.75;nan;100804.19;4985834;28;20500;-86
2021/07/19 09:09:29;;;;;;;3.95;2.33;;;;;;;28.66;nan;100807.72;4975249;28;20046;-86
2021/07/19 09:11:56;;;;;;;2.97;2.25;;;;;;;28.16;nan;100800.91;4987453;28;20038;-85
2021/07/19 09:14:21;;;;;;;3.30;2.20;;;;;;;;;;4996177;28;20116;-86
2021/07/19 09:16:48;;;;;;;2.97;2.00;;;;;;;27.36;nan;100726.66;4990849;28;20038;-85
2021/07/19 09:19:15;;;;;;;4.20;1.90;;;;;;;;;;4980666;28;20042;-85
2021/07/19 09:21:42;;;;;;;2.80;2.10;;;;;;;;;;4979354;28;20519;-85
2021/07/19 09:24:10;;;;;;;5.50;2.67;;;;;;;26.96;nan;100689.88;4989124;28;20041;-85
2021/07/19 09:26:37;;;;;;;4.95;2.60;;;;;;;26.63;nan;100775.81;4973532;28;20065;-84
2021/07/19 09:29:11;;;;;;;6.05;2.47;;;;;;;26.54;nan;100783.56;4987807;28;20034;-85
2021/07/19 09:31:39;;;;;;;4.43;2.55;;;;;;;26.45;nan;100785.84;4966456;28;20379;-86
2021/07/19 09:34:19;;;;;;;3.63;2.17;;;;;;;26.77;nan;100789.78;4984458;28;20081;-85
2021/07/19 09:36:54;;;;;;;3.47;2.40;;;;;;;26.67;nan;100785.06;4977038;28;20116;-85
2021/07/19 09:39:20;;;;;;;5.55;2.75;;;;;;;26.73;nan;100777.81;4964637;28;20039;-86
2021/07/19 09:41:45;;;;;;;6.90;2.50;;;;;;;26.84;nan;100785.00;4982445;28;20050;-85
2021/07/19 09:44:11;;;;;;;9.52;2.95;;;;;;;27.16;nan;100784.28;4979569;28;20042;-86
2021/07/19 09:46:36;;;;;;;5.50;2.30;;;;;;;27.01;nan;100779.50;4997044;28;20111;-86
2021/07/19 09:49:03;;;;;;;3.85;2.20;;;;;;;27.34;nan;100783.94;4972234;28;20085;-86
2021/07/19 09:51:30;;;;;;;4.93;2.35;;;;;;;27.28;nan;100777.63;4991996;28;20038;-86
2021/07/19 09:53:56;;;;;;;4.93;2.20;;;;;;;26.75;nan;100781.13;4976722;28;20066;-85
2021/07/19 09:56:22;;;;;;;4.82;2.20;;;;;;;26.87;nan;100776.38;4990881;28;20591;-86
2021/07/19 09:58:52;;;;;;;3.47;2.55;;;;;;;26.87;nan;100773.66;4987823;28;20040;-86
2021/07/19 10:01:28;;;;;;;4.22;2.65;;;;;;;26.94;nan;100773.47;4973478;28;20098;-86
2021/07/19 10:04:09;;;;;;;5.40;2.40;;;;;;;26.91;nan;100772.06;4977039;28;20787;-86
2021/07/19 10:06:39;;;;;;;3.20;2.20;;;;;;;27.05;nan;100775.19;4979770;28;20038;-85
2021/07/19 10:09:11;;;;;;;5.47;2.28;;;;;;;27.40;nan;100771.22;4976967;28;20528;-86
2021/07/19 10:11:40;;;;;;;3.63;2.00;;;;;;;27.78;nan;100769.38;4997574;28;20038;-86
2021/07/19 10:14:07;;;;;;;3.55;2.05;;;;;;;27.95;nan;100764.63;4989659;28;20093;-88
2021/07/19 10:16:35;;;;;;;6.03;2.50;;;;;;;28.07;nan;100753.53;4996706;28;20046;-86
2021/07/19 10:19:03;;;;;;;5.63;2.58;;;;;;;28.10;nan;100753.84;5000960;28;20034;-86
2021/07/19 10:21:30;;;;;;;4.13;2.08;;;;;;;27.65;nan;100760.59;4970859;28;20041;-87
2021/07/19 10:23:59;;;;;;;5.68;2.05;;;;;;;27.84;nan;100752.03;4989438;28;20097;-85
2021/07/19 10:26:25;;;;;;;3.08;2.08;;;;;;;27.90;nan;100756.44;4979759;28;20046;-86
2021/07/19 10:28:51;;;;;;;4.10;2.30;;;;;;;27.85;nan;100743.63;4985121;28;20033;-86
2021/07/19 10:31:17;;;;;;;4.05;2.13;;;;;;;27.99;nan;100746.72;4988557;28;20637;-87
2021/07/19 10:33:43;;;;;;;4.35;2.67;;;;;;;27.89;nan;100738.50;4975290;28;20764;-86
2021/07/19 10:36:11;;;;;;;3.70;2.20;;;;;;;27.48;nan;100735.44;4974567;28;20057;-85
2021/07/19 10:38:40;;;;;;;4.65;2.50;;;;;;;27.56;nan;100732.25;4989864;28;20398;-85
2021/07/19 10:41:07;;;;;;;5.05;2.60;;;;;;;27.59;nan;100742.59;4975394;28;20088;-86
2021/07/19 10:43:32;;;;;;;4.10;2.20;;;;;;;27.58;nan;100740.97;4980510;28;20034;-86
2021/07/19 10:46:13;;;;;;;4.18;2.50;;;;;;;27.71;nan;100739.69;4973663;28;20531;-86
2021/07/19 10:48:41;;;;;;;5.05;2.50;;;;;;;27.59;nan;100744.50;4995155;28;20042;-86
2021/07/19 10:51:15;;;;;;;4.53;2.40;;;;;;;27.72;nan;100739.44;4976006;28;20031;-85
2021/07/19 10:53:41;;;;;;;4.20;2.50;;;;;;;27.61;nan;100736.91;4991696;28;20043;-85
2021/07/19 10:56:09;;;;;;;3.97;2.47;;;;;;;27.54;nan;100728.97;4977517;28;20046;-86
2021/07/19 10:58:41;;;;;;;3.75;2.40;;;;;;;27.79;nan;100738.38;4986221;28;20034;-85
2021/07/19 11:01:26;;;;;;;4.20;2.33;;;;;;;27.57;nan;100739.31;4967448;28;20542;-85
2021/07/19 11:03:57;;;;;;;3.65;2.33;;;;;;;27.35;nan;100730.44;4991352;28;20034;-85
2021/07/19 11:06:32;;;;;;;3.95;2.35;;;;;;;27.27;nan;100729.84;4976355;28;20034;-85
2021/07/19 11:08:58;;;;;;;4.22;2.60;;;;;;;27.35;nan;100733.97;4985381;28;20030;-84
2021/07/19 11:11:33;;;;;;;3.58;2.60;;;;;;;27.19;nan;100727.59;4970011;28;20031;-84
2021/07/19 11:14:02;;;;;;;4.45;2.63;;;;;;;27.35;nan;100730.44;4966770;28;20106;-86
2021/07/19 11:16:38;;;;;;;3.72;2.40;;;;;;;27.25;nan;100725.75;4984764;28;20045;-84
2021/07/19 11:19:04;;;;;;;6.10;2.85;;;;;;;27.06;nan;100730.69;4990768;28;20090;-85
2021/07/19 11:21:32;;;;;;;3.72;2.50;;;;;;;27.18;nan;100727.81;4996506;28;20038;-84
2021/07/19 11:24:07;;;;;;;4.35;2.40;;;;;;;27.07;nan;100730.44;4984619;28;20049;-85
2021/07/19 11:26:32;;;;;;;9.00;3.00;;;;;;;27.10;nan;100737.22;4994222;28;20455;-84
2021/07/19 11:28:59;;;;;;;3.92;2.50;;;;;;;27.19;nan;100733.00;4989700;28;20041;-83
2021/07/19 11:31:25;;;;;;;3.95;2.70;;;;;;;27.37;nan;100733.72;4993989;28;20090;-84